createdAt,value
2018-10-21T00:02:54.590Z,9.61
2018-10-21T00:05:59.025Z,9.62
2018-10-21T00:09:03.320Z,9.65
2018-10-21T00:12:07.637Z,9.69
2018-10-21T00:15:11.693Z,9.71
2018-10-21T00:18:15.955Z,9.73
2018-10-21T00:21:20.186Z,9.74
2018-10-21T00:24:24.453Z,9.79
2018-10-21T00:27:28.805Z,9.82
2018-10-21T00:30:33.140Z,9.82
2018-10-21T00:33:37.437Z,9.82
2018-10-21T00:36:41.664Z,9.79
2018-10-21T00:39:47.419Z,9.75
2018-10-21T00:42:51.963Z,9.75
2018-10-21T00:45:56.279Z,9.73
2018-10-21T00:49:00.573Z,9.70
2018-10-21T00:52:04.934Z,9.65
2018-10-21T00:55:11.543Z,9.58
2018-10-21T00:58:15.806Z,9.51
2018-10-21T01:01:20.159Z,9.45
2018-10-21T01:04:24.488Z,9.40
2018-10-21T01:07:28.813Z,9.41
2018-10-21T01:10:33.699Z,9.42
2018-10-21T01:13:38.009Z,9.41
2018-10-21T01:16:42.343Z,9.40
2018-10-21T01:19:46.456Z,9.40
2018-10-21T01:22:50.793Z,9.41
2018-10-21T01:25:55.104Z,9.43
2018-10-21T01:28:59.444Z,9.43
2018-10-21T01:32:06.541Z,9.41
2018-10-21T01:35:11.369Z,9.43
2018-10-21T01:38:15.726Z,9.45
2018-10-21T01:41:19.962Z,9.43
2018-10-21T01:44:25.335Z,9.38
2018-10-21T01:47:29.492Z,9.33
2018-10-21T01:50:33.731Z,9.28
2018-10-21T01:53:38.098Z,9.24
2018-10-21T01:56:43.338Z,9.22
2018-10-21T01:59:47.649Z,9.19
2018-10-21T02:02:52.036Z,9.18
2018-10-21T02:05:56.288Z,9.14
2018-10-21T02:09:00.639Z,9.07
2018-10-21T02:12:04.933Z,9.00
2018-10-21T02:15:14.579Z,8.96
2018-10-21T02:18:18.745Z,8.91
2018-10-21T02:21:23.034Z,8.89
2018-10-21T02:24:27.348Z,8.87
2018-10-21T02:27:33.353Z,8.86
2018-10-21T02:30:38.774Z,8.84
2018-10-21T02:33:43.142Z,8.83
2018-10-21T02:36:47.291Z,8.78
2018-10-21T02:39:52.691Z,8.68
2018-10-21T02:42:56.791Z,8.60
2018-10-21T02:46:01.079Z,8.53
2018-10-21T02:49:05.986Z,8.44
2018-10-21T02:52:11.407Z,8.39
2018-10-21T02:55:15.790Z,8.38
2018-10-21T02:58:19.922Z,8.32
2018-10-21T03:01:24.177Z,8.32
2018-10-21T03:04:28.425Z,8.29
2018-10-21T03:07:35.551Z,8.23
2018-10-21T03:10:39.909Z,8.19
2018-10-21T03:13:46.313Z,8.23
2018-10-21T03:16:50.475Z,8.27
2018-10-21T03:19:55.171Z,8.33
2018-10-21T03:22:59.509Z,8.38
2018-10-21T03:26:04.073Z,8.48
2018-10-21T03:29:08.351Z,8.59
2018-10-21T03:32:12.854Z,8.68
2018-10-21T03:35:16.904Z,8.76
2018-10-21T03:38:21.223Z,8.82
2018-10-21T03:41:25.520Z,8.90
2018-10-21T03:44:30.866Z,8.98
2018-10-21T03:47:35.156Z,9.03
2018-10-21T03:50:40.935Z,9.08
2018-10-21T03:53:45.323Z,9.13
2018-10-21T03:56:49.590Z,9.23
2018-10-21T03:59:53.701Z,9.28
2018-10-21T04:02:57.935Z,9.24
2018-10-21T04:06:03.699Z,9.26
2018-10-21T04:09:08.811Z,9.26
2018-10-21T04:12:12.943Z,9.25
2018-10-21T04:15:17.227Z,9.28
2018-10-21T04:18:21.520Z,9.33
2018-10-21T04:21:27.150Z,9.40
2018-10-21T04:24:31.595Z,9.45
2018-10-21T04:27:35.951Z,9.50
2018-10-21T04:30:41.362Z,9.56
2018-10-21T04:33:46.393Z,9.64
2018-10-21T04:36:54.081Z,9.70
2018-10-21T04:40:16.803Z,9.75
2018-10-21T04:43:21.086Z,9.80
2018-10-21T04:46:25.464Z,9.85
2018-10-21T04:49:29.724Z,9.89
2018-10-21T04:52:35.758Z,9.94
2018-10-21T04:55:40.064Z,9.99
2018-10-21T04:58:44.383Z,10.02
2018-10-21T05:01:48.650Z,10.08
2018-10-21T05:04:52.931Z,10.13
2018-10-21T05:07:57.177Z,10.19
2018-10-21T05:11:01.437Z,10.27
2018-10-21T05:14:06.199Z,10.35
2018-10-21T05:17:10.838Z,10.40
2018-10-21T05:20:16.653Z,10.45
2018-10-21T05:23:20.969Z,10.53
2018-10-21T05:26:25.222Z,10.56
2018-10-21T05:29:30.633Z,10.59
2018-10-21T05:32:35.470Z,10.61
2018-10-21T05:35:39.721Z,10.66
2018-10-21T05:38:45.537Z,10.68
2018-10-21T05:41:49.858Z,10.73
2018-10-21T05:44:54.270Z,10.73
2018-10-21T05:47:58.443Z,10.75
2018-10-21T05:51:02.789Z,10.77
2018-10-21T05:54:09.081Z,10.79
2018-10-21T05:57:13.445Z,10.79
2018-10-21T06:00:19.145Z,10.83
2018-10-21T06:03:23.492Z,10.85
2018-10-21T06:06:27.843Z,10.89
2018-10-21T06:09:32.434Z,10.92
2018-10-21T06:12:36.751Z,10.95
2018-10-21T06:15:41.394Z,10.97
2018-10-21T06:18:46.233Z,10.99
2018-10-21T06:21:50.531Z,10.97
2018-10-21T06:24:54.891Z,10.95
2018-10-21T06:27:59.731Z,10.96
2018-10-21T06:31:04.179Z,10.97
2018-10-21T06:34:09.831Z,10.96
2018-10-21T06:37:14.069Z,10.97
2018-10-21T06:40:18.235Z,10.96
2018-10-21T06:43:22.547Z,10.97
2018-10-21T06:46:26.649Z,10.98
2018-10-21T06:49:30.794Z,11.02
2018-10-21T06:52:34.990Z,11.06
2018-10-21T06:55:41.605Z,11.07
2018-10-21T06:58:45.968Z,11.14
2018-10-21T07:01:50.303Z,11.17
2018-10-21T07:04:54.751Z,11.19
2018-10-21T07:07:59.520Z,11.22
2018-10-21T07:11:04.271Z,11.25
2018-10-21T07:14:08.800Z,11.29
2018-10-21T07:17:13.078Z,11.31
2018-10-21T07:20:17.438Z,11.36
2018-10-21T07:23:21.577Z,11.41
2018-10-21T07:26:26.026Z,11.47
2018-10-21T07:29:30.374Z,11.52
2018-10-21T07:32:35.952Z,11.55
2018-10-21T07:35:40.093Z,11.59
2018-10-21T07:38:44.480Z,11.65
2018-10-21T07:41:50.258Z,11.71
2018-10-21T07:44:54.564Z,11.74
2018-10-21T07:47:58.943Z,11.82
2018-10-21T07:51:03.226Z,11.90
2018-10-21T07:54:07.595Z,11.95
2018-10-21T07:57:11.934Z,12.02
2018-10-21T08:00:17.719Z,12.10
2018-10-21T08:03:21.822Z,12.16
2018-10-21T08:06:38.066Z,12.27
2018-10-21T08:09:43.500Z,12.32
2018-10-21T08:12:48.539Z,12.35
2018-10-21T08:15:52.965Z,12.40
2018-10-21T08:18:57.313Z,12.38
2018-10-21T08:22:02.375Z,12.33
2018-10-21T08:25:06.798Z,12.38
2018-10-21T08:28:10.915Z,12.48
2018-10-21T08:31:15.268Z,12.66
2018-10-21T08:34:19.412Z,12.82
2018-10-21T08:37:23.754Z,12.96
2018-10-21T08:40:29.350Z,13.06
2018-10-21T08:43:34.204Z,13.06
2018-10-21T08:46:38.514Z,12.99
2018-10-21T08:49:44.982Z,12.99
2018-10-21T08:52:49.249Z,12.90
2018-10-21T08:55:53.452Z,12.96
2018-10-21T08:58:58.339Z,13.02
2018-10-21T09:02:02.654Z,13.16
2018-10-21T09:05:09.626Z,13.25
2018-10-21T09:08:14.150Z,13.40
2018-10-21T09:11:18.522Z,13.40
2018-10-21T09:14:23.129Z,13.52
2018-10-21T09:17:27.448Z,13.54
2018-10-21T09:20:31.792Z,13.52
2018-10-21T09:23:36.137Z,13.61
2018-10-21T09:26:40.917Z,13.68
2018-10-21T09:29:45.180Z,13.74
2018-10-21T09:32:49.570Z,13.85
2018-10-21T09:35:53.882Z,13.99
2018-10-21T09:38:58.183Z,14.10
2018-10-21T09:42:02.397Z,14.18
2018-10-21T09:45:07.595Z,14.21
2018-10-21T09:48:11.714Z,14.24
2018-10-21T09:51:16.002Z,14.36
2018-10-21T09:54:20.098Z,14.42
2018-10-21T09:57:24.382Z,14.49
2018-10-21T10:00:34.029Z,14.57
2018-10-21T10:03:38.456Z,14.55
2018-10-21T10:06:42.484Z,14.63
2018-10-21T10:09:46.557Z,14.68
2018-10-21T10:12:50.647Z,14.59
2018-10-21T10:15:56.355Z,14.54
2018-10-21T10:19:00.902Z,14.48
2018-10-21T10:22:05.384Z,14.42
2018-10-21T10:25:10.695Z,14.39
2018-10-21T10:28:15.114Z,14.34
2018-10-21T10:31:19.451Z,14.21
2018-10-21T10:34:23.629Z,14.19
2018-10-21T10:37:28.513Z,14.20
2018-10-21T10:40:32.785Z,14.19
2018-10-21T10:43:37.050Z,14.26
2018-10-21T10:46:41.159Z,14.33
2018-10-21T10:49:47.081Z,14.36
2018-10-21T10:52:51.395Z,14.28
2018-10-21T10:55:55.743Z,14.36
2018-10-21T10:59:00.057Z,14.39
2018-10-21T11:02:04.498Z,14.38
2018-10-21T11:05:09.766Z,14.45
2018-10-21T11:08:14.097Z,14.44
2018-10-21T11:11:18.282Z,14.48
2018-10-21T11:14:22.687Z,14.48
2018-10-21T11:17:27.104Z,14.52
2018-10-21T11:20:31.403Z,14.50
2018-10-21T11:23:35.724Z,14.50
2018-10-21T11:26:40.083Z,14.49
2018-10-21T11:29:46.284Z,14.53
2018-10-21T11:32:50.646Z,14.55
2018-10-21T11:35:54.993Z,14.51
2018-10-21T11:38:59.292Z,14.53
2018-10-21T11:42:03.715Z,14.52
2018-10-21T11:45:08.432Z,14.58
2018-10-21T11:48:12.713Z,14.56
2018-10-21T11:51:17.072Z,14.56
2018-10-21T11:54:21.505Z,14.61
2018-10-21T11:57:25.927Z,14.65
2018-10-21T12:00:30.351Z,14.74
2018-10-21T12:03:34.475Z,14.76
2018-10-21T12:06:38.927Z,14.76
2018-10-21T12:09:43.361Z,14.90
2018-10-21T12:12:48.733Z,15.07
2018-10-21T12:15:52.875Z,15.20
2018-10-21T12:18:57.215Z,15.34
2018-10-21T12:22:01.525Z,15.40
2018-10-21T12:25:06.623Z,15.42
2018-10-21T12:28:10.987Z,15.42
2018-10-21T12:31:15.330Z,15.51
2018-10-21T12:34:19.692Z,15.54
2018-10-21T12:37:26.509Z,15.53
2018-10-21T12:40:30.899Z,15.60
2018-10-21T12:43:35.333Z,15.82
2018-10-21T12:46:40.219Z,15.83
2018-10-21T12:49:44.558Z,15.74
2018-10-21T12:52:48.918Z,15.65
2018-10-21T12:55:53.769Z,15.64
2018-10-21T12:58:58.060Z,15.66
2018-10-21T13:02:02.410Z,15.62
2018-10-21T13:05:07.070Z,15.57
2018-10-21T13:08:11.454Z,15.47
2018-10-21T13:11:15.738Z,15.43
2018-10-21T13:14:20.076Z,15.41
2018-10-21T13:17:24.411Z,15.41
2018-10-21T13:20:28.704Z,15.36
2018-10-21T13:23:33.035Z,15.35
2018-10-21T13:26:37.460Z,15.41
2018-10-21T13:29:41.786Z,15.40
2018-10-21T13:32:47.350Z,15.41
2018-10-21T13:35:51.675Z,15.40
2018-10-21T13:38:56.054Z,15.37
2018-10-21T13:42:00.380Z,15.30
2018-10-21T13:45:04.750Z,15.33
2018-10-21T13:48:09.096Z,15.36
2018-10-21T13:51:13.439Z,15.47
2018-10-21T13:54:17.593Z,15.44
2018-10-21T13:57:21.852Z,15.37
2018-10-21T14:00:26.253Z,15.33
2018-10-21T14:03:30.550Z,15.26
2018-10-21T14:06:34.836Z,15.22
2018-10-21T14:09:39.418Z,15.18
2018-10-21T14:12:43.796Z,15.16
2018-10-21T14:15:48.164Z,15.11
2018-10-21T14:18:52.626Z,15.10
2018-10-21T14:21:56.945Z,15.05
2018-10-21T14:25:01.149Z,15.05
2018-10-21T14:28:05.679Z,15.04
2018-10-21T14:31:10.485Z,15.02
2018-10-21T14:34:14.851Z,15.00
2018-10-21T14:37:19.549Z,14.96
2018-10-21T14:40:23.877Z,14.91
2018-10-21T14:43:28.209Z,14.84
2018-10-21T14:46:32.653Z,14.84
2018-10-21T14:49:36.973Z,14.82
2018-10-21T14:52:41.272Z,14.76
2018-10-21T14:55:45.563Z,14.75
2018-10-21T14:58:49.633Z,14.78
2018-10-21T15:01:53.961Z,14.71
2018-10-21T15:04:58.261Z,14.66
2018-10-21T15:08:02.648Z,14.65
2018-10-21T15:11:07.103Z,14.69
2018-10-21T15:14:12.068Z,14.63
2018-10-21T15:17:16.461Z,14.61
2018-10-21T15:20:20.825Z,14.58
2018-10-21T15:23:25.950Z,14.63
2018-10-21T15:26:30.262Z,14.64
2018-10-21T15:29:36.001Z,14.58
2018-10-21T15:32:40.991Z,14.51
2018-10-21T15:35:45.348Z,14.49
2018-10-21T15:38:50.163Z,14.49
2018-10-21T15:41:55.753Z,14.43
2018-10-21T15:45:00.133Z,14.44
2018-10-21T15:48:04.324Z,14.44
2018-10-21T15:51:08.704Z,14.42
2018-10-21T15:54:13.598Z,14.37
2018-10-21T15:57:17.950Z,14.33
2018-10-21T16:00:22.250Z,14.30
2018-10-21T16:03:26.548Z,14.25
2018-10-21T16:06:30.865Z,14.21
2018-10-21T16:09:35.377Z,14.19
2018-10-21T16:12:41.628Z,14.19
2018-10-21T16:15:45.760Z,14.21
2018-10-21T16:18:50.041Z,14.18
2018-10-21T16:21:54.944Z,14.21
2018-10-21T16:24:59.302Z,14.22
2018-10-21T16:28:04.564Z,14.20
2018-10-21T16:31:10.181Z,14.17
2018-10-21T16:34:17.375Z,14.18
2018-10-21T16:37:26.616Z,14.18
2018-10-21T16:40:33.155Z,14.17
2018-10-21T16:43:39.476Z,14.20
2018-10-21T16:46:45.299Z,14.15
2018-10-21T16:49:51.423Z,14.16
2018-10-21T16:52:57.321Z,14.15
2018-10-21T16:56:02.931Z,14.13
2018-10-21T16:59:10.047Z,14.14
2018-10-21T17:02:15.208Z,14.12
2018-10-21T17:05:20.722Z,14.12
2018-10-21T17:08:26.239Z,14.14
2018-10-21T17:11:33.176Z,14.12
2018-10-21T17:14:39.102Z,14.14
2018-10-21T17:17:44.906Z,14.14
2018-10-21T17:20:49.863Z,14.11
2018-10-21T17:23:55.075Z,14.07
2018-10-21T17:27:00.257Z,14.04
2018-10-21T17:30:07.140Z,14.02
2018-10-21T17:33:12.026Z,14.03
2018-10-21T17:36:17.620Z,14.00
2018-10-21T17:39:22.646Z,14.02
2018-10-21T17:42:28.684Z,14.07
2018-10-21T17:45:33.977Z,14.05
2018-10-21T17:48:38.513Z,14.03
2018-10-21T17:51:43.655Z,14.03
2018-10-21T17:54:48.179Z,14.02
2018-10-21T17:57:52.811Z,14.01
2018-10-21T18:00:57.498Z,14.03
2018-10-21T18:04:02.239Z,14.02
2018-10-21T18:07:08.045Z,14.02
2018-10-21T18:10:12.959Z,13.99
2018-10-21T18:13:17.703Z,14.07
2018-10-21T18:16:22.193Z,14.02
2018-10-21T18:19:27.211Z,13.99
2018-10-21T18:22:32.435Z,14.03
2018-10-21T18:25:36.767Z,14.02
2018-10-21T18:28:41.263Z,14.03
2018-10-21T18:31:47.104Z,13.99
2018-10-21T18:34:51.891Z,14.02
2018-10-21T18:37:56.288Z,13.95
2018-10-21T18:41:00.999Z,13.95
2018-10-21T18:44:06.157Z,13.93
2018-10-21T18:47:10.760Z,13.93
2018-10-21T18:50:15.988Z,13.93
2018-10-21T18:53:20.262Z,13.95
2018-10-21T18:56:24.513Z,13.94
2018-10-21T18:59:28.976Z,13.98
2018-10-21T19:02:33.396Z,13.99
2018-10-21T19:05:38.686Z,13.96
2018-10-21T19:08:43.733Z,13.93
2018-10-21T19:11:48.024Z,13.95
2018-10-21T19:14:52.318Z,13.94
2018-10-21T19:17:57.445Z,13.97
2018-10-21T19:21:02.021Z,13.94
2018-10-21T19:24:06.613Z,13.97
2018-10-21T19:27:11.040Z,13.97
2018-10-21T19:30:15.815Z,13.99
2018-10-21T19:33:20.016Z,13.97
2018-10-21T19:36:24.375Z,13.94
2018-10-21T19:39:29.840Z,13.92
2018-10-21T19:42:34.215Z,13.89
2018-10-21T19:45:39.593Z,13.88
2018-10-21T19:48:44.015Z,13.89
2018-10-21T19:51:49.005Z,13.86
2018-10-21T19:54:54.407Z,13.83
2018-10-21T19:57:58.925Z,13.77
2018-10-21T20:01:03.049Z,13.77
2018-10-21T20:04:07.555Z,13.74
2018-10-21T20:07:11.746Z,13.66
2018-10-21T20:10:16.988Z,13.57
2018-10-21T20:13:21.099Z,13.56
2018-10-21T20:16:25.455Z,13.54
2018-10-21T20:19:29.766Z,13.57
2018-10-21T20:22:35.322Z,13.64
2018-10-21T20:25:39.686Z,13.64
2018-10-21T20:28:44.091Z,13.70
2018-10-21T20:31:48.459Z,13.73
2018-10-21T20:34:52.860Z,13.71
2018-10-21T20:37:57.413Z,13.66
2018-10-21T20:41:01.693Z,13.63
2018-10-21T20:44:06.124Z,13.58
2018-10-21T20:47:10.322Z,13.51
2018-10-21T20:50:16.359Z,13.37
2018-10-21T20:53:20.641Z,13.27
2018-10-21T20:56:24.930Z,13.18
2018-10-21T20:59:29.942Z,13.08
2018-10-21T21:02:34.305Z,13.06
2018-10-21T21:05:38.740Z,13.07
2018-10-21T21:08:42.858Z,12.99
2018-10-21T21:11:47.263Z,12.98
2018-10-21T21:14:51.424Z,12.96
2018-10-21T21:17:55.809Z,12.96
2018-10-21T21:21:00.344Z,12.92
2018-10-21T21:24:06.333Z,12.92
2018-10-21T21:27:10.636Z,12.87
2018-10-21T21:30:17.526Z,12.88
2018-10-21T21:33:21.816Z,12.88
2018-10-21T21:36:26.133Z,12.88
2018-10-21T21:39:30.428Z,12.85
2018-10-21T21:42:35.297Z,12.82
2018-10-21T21:45:39.561Z,12.74
2018-10-21T21:48:43.737Z,12.71
2018-10-21T21:51:48.766Z,12.71
2018-10-21T21:54:53.042Z,12.67
2018-10-21T21:57:57.453Z,12.65
2018-10-21T22:01:01.799Z,12.65
2018-10-21T22:04:06.734Z,12.64
2018-10-21T22:07:10.894Z,12.73
2018-10-21T22:10:15.713Z,12.74
2018-10-21T22:13:20.385Z,12.74
2018-10-21T22:16:24.636Z,12.72
2018-10-21T22:19:28.909Z,12.72
2018-10-21T22:22:33.165Z,12.71
2018-10-21T22:25:38.028Z,12.75
2018-10-21T22:28:42.441Z,12.76
2018-10-21T22:31:48.558Z,12.81
2018-10-21T22:34:52.941Z,12.81
2018-10-21T22:37:57.294Z,12.82
2018-10-21T22:41:01.412Z,12.82
2018-10-21T22:44:06.034Z,12.82
2018-10-21T22:47:10.334Z,12.84
2018-10-21T22:50:14.745Z,12.88
2018-10-21T22:53:19.269Z,12.93
2018-10-21T22:56:23.426Z,12.94
2018-10-21T22:59:27.870Z,12.96
2018-10-21T23:02:32.352Z,13.01
2018-10-21T23:05:36.682Z,13.06
2018-10-21T23:08:40.987Z,13.08
2018-10-21T23:11:45.489Z,13.12
2018-10-21T23:14:49.836Z,13.13
2018-10-21T23:17:54.186Z,13.18
2018-10-21T23:21:00.036Z,13.18
2018-10-21T23:24:05.208Z,13.19
2018-10-21T23:27:10.253Z,13.21
2018-10-21T23:30:14.640Z,13.22
2018-10-21T23:33:19.207Z,13.24
2018-10-21T23:36:24.105Z,13.24
2018-10-21T23:39:29.051Z,13.25
2018-10-21T23:42:33.960Z,13.27
2018-10-21T23:45:38.274Z,13.26
2018-10-21T23:48:43.648Z,13.32
2018-10-21T23:51:48.624Z,13.29
2018-10-21T23:54:52.782Z,13.23
2018-10-21T23:57:57.332Z,13.23
